createdAt,value
2022-11-08T00:02:58.484Z,5.30
2022-11-08T00:08:22.236Z,5.26
2022-11-08T00:13:46.699Z,5.22
2022-11-08T00:18:48.598Z,5.21
2022-11-08T00:23:50.449Z,5.19
2022-11-08T00:28:52.304Z,5.17
2022-11-08T00:33:54.106Z,5.14
2022-11-08T00:38:56.040Z,5.12
2022-11-08T00:43:57.842Z,5.09
2022-11-08T00:48:59.629Z,5.06
2022-11-08T00:54:01.490Z,5.03
2022-11-08T00:59:03.409Z,5.02
2022-11-08T01:04:05.841Z,5.01
2022-11-08T01:09:08.330Z,5.02
2022-11-08T01:14:10.150Z,5.05
2022-11-08T01:19:12.327Z,5.09
2022-11-08T01:24:14.158Z,5.11
2022-11-08T01:29:15.933Z,5.12
2022-11-08T01:34:17.700Z,5.11
2022-11-08T01:39:19.471Z,5.11
2022-11-08T01:44:22.308Z,5.12
2022-11-08T01:49:27.773Z,5.15
2022-11-08T01:54:40.091Z,5.17
2022-11-08T01:59:45.282Z,5.19
2022-11-08T02:04:47.743Z,5.25
2022-11-08T02:09:49.530Z,5.30
2022-11-08T02:14:51.436Z,5.33
2022-11-08T02:19:53.381Z,5.36
2022-11-08T02:24:58.466Z,5.39
2022-11-08T02:30:00.287Z,5.40
2022-11-08T02:35:02.450Z,5.41
2022-11-08T02:40:05.412Z,5.39
2022-11-08T02:45:07.932Z,5.38
2022-11-08T02:50:10.197Z,5.38
2022-11-08T02:55:11.984Z,5.40
2022-11-08T03:00:14.352Z,5.41
2022-11-08T03:05:16.184Z,5.38
2022-11-08T03:10:18.766Z,5.35
2022-11-08T03:15:20.692Z,5.32
2022-11-08T03:20:22.854Z,5.29
2022-11-08T03:25:24.759Z,5.28
2022-11-08T03:30:26.531Z,5.26
2022-11-08T03:35:28.463Z,5.23
2022-11-08T03:40:30.285Z,5.20
2022-11-08T03:45:32.249Z,5.19
2022-11-08T03:50:34.219Z,5.19
2022-11-08T03:55:36.069Z,5.16
2022-11-08T04:00:37.935Z,5.14
2022-11-08T04:05:39.792Z,5.12
2022-11-08T04:10:41.615Z,5.11
2022-11-08T04:15:43.420Z,5.10
2022-11-08T04:21:06.626Z,5.11
2022-11-08T04:26:11.761Z,5.11
2022-11-08T04:31:16.174Z,5.09
2022-11-08T04:36:18.051Z,5.06
2022-11-08T04:41:22.807Z,5.03
2022-11-08T04:46:27.436Z,5.03
2022-11-08T04:51:31.830Z,5.05
2022-11-08T04:56:33.640Z,5.03
2022-11-08T05:01:36.403Z,4.98
2022-11-08T05:06:38.379Z,4.90
2022-11-08T05:11:40.192Z,4.81
2022-11-08T05:16:42.034Z,4.75
2022-11-08T05:22:02.705Z,4.68
2022-11-08T05:27:04.500Z,4.61
2022-11-08T05:32:06.306Z,4.56
2022-11-08T05:37:08.060Z,4.52
2022-11-08T05:42:09.935Z,4.49
2022-11-08T05:47:11.755Z,4.48
2022-11-08T05:52:13.559Z,4.49
2022-11-08T05:57:17.739Z,4.51
2022-11-08T06:02:23.173Z,4.54
2022-11-08T06:07:25.218Z,4.56
2022-11-08T06:12:27.067Z,4.58
2022-11-08T06:17:30.260Z,4.62
2022-11-08T06:22:33.043Z,4.68
2022-11-08T06:27:36.342Z,4.76
2022-11-08T06:32:38.165Z,4.85
2022-11-08T06:37:39.946Z,4.95
2022-11-08T06:42:41.777Z,5.05
2022-11-08T06:47:43.552Z,5.22
2022-11-08T06:52:45.442Z,5.49
2022-11-08T06:57:47.268Z,5.69
2022-11-08T07:02:56.677Z,5.85
2022-11-08T07:07:59.482Z,6.03
2022-11-08T07:13:03.708Z,6.21
2022-11-08T07:18:08.216Z,6.40
2022-11-08T07:23:11.254Z,6.71
2022-11-08T07:28:17.333Z,6.99
2022-11-08T07:33:19.389Z,7.16
2022-11-08T07:38:22.344Z,7.32
2022-11-08T07:43:24.896Z,7.48
2022-11-08T07:48:29.568Z,7.67
2022-11-08T07:53:31.534Z,7.84
2022-11-08T07:58:34.619Z,8.02
2022-11-08T08:03:36.588Z,8.19
2022-11-08T08:08:39.259Z,8.33
2022-11-08T08:13:41.598Z,8.48
2022-11-08T08:18:43.380Z,8.61
2022-11-08T08:23:45.218Z,8.78
2022-11-08T08:28:47.127Z,8.94
2022-11-08T08:33:48.971Z,9.13
2022-11-08T08:38:50.775Z,9.34
2022-11-08T08:43:52.579Z,9.55
2022-11-08T08:48:54.731Z,9.81
2022-11-08T08:53:58.441Z,10.06
2022-11-08T09:04:22.080Z,10.62
2022-11-08T09:09:23.938Z,10.84
2022-11-08T09:14:25.766Z,11.07
2022-11-08T09:19:27.591Z,11.29
2022-11-08T09:24:29.550Z,11.56
2022-11-08T09:29:32.097Z,11.80
2022-11-08T09:34:33.920Z,11.97
2022-11-08T09:39:36.032Z,12.16
2022-11-08T09:44:45.807Z,12.30
2022-11-08T09:50:00.862Z,12.39
2022-11-08T09:55:45.327Z,12.58
2022-11-08T10:00:51.035Z,12.80
2022-11-08T10:05:58.991Z,12.99
2022-11-08T10:11:29.527Z,13.23
2022-11-08T10:16:43.581Z,13.46
2022-11-08T10:22:08.705Z,13.65
2022-11-08T10:27:16.484Z,13.79
2022-11-08T10:32:21.835Z,13.90
2022-11-08T10:37:25.577Z,14.02
2022-11-08T10:42:45.459Z,14.21
2022-11-08T10:47:47.479Z,14.38
2022-11-08T10:53:03.506Z,14.54
2022-11-08T10:58:41.669Z,14.61
2022-11-08T11:03:45.872Z,14.66
2022-11-08T11:08:49.851Z,14.70
2022-11-08T11:14:08.003Z,14.79
2022-11-08T11:19:15.123Z,14.88
2022-11-08T11:24:21.089Z,15.01
2022-11-08T11:29:30.789Z,15.12
2022-11-08T11:34:50.928Z,15.18
2022-11-08T11:40:04.966Z,15.23
2022-11-08T11:45:29.180Z,15.28
2022-11-08T11:50:37.858Z,15.30
2022-11-08T11:55:51.939Z,15.31
2022-11-08T12:01:15.839Z,15.35
2022-11-08T12:06:27.254Z,15.49
2022-11-08T12:11:40.911Z,15.55
2022-11-08T12:16:58.157Z,15.54
2022-11-08T12:22:12.282Z,15.55
2022-11-08T12:27:23.236Z,15.53
2022-11-08T12:32:43.446Z,15.44
2022-11-08T12:38:24.380Z,15.35
2022-11-08T12:43:32.202Z,15.30
2022-11-08T12:49:01.552Z,15.28
2022-11-08T12:54:29.551Z,15.29
2022-11-08T12:59:45.738Z,15.30
2022-11-08T13:05:03.089Z,15.32
2022-11-08T13:10:20.383Z,15.32
2022-11-08T13:15:25.416Z,15.28
2022-11-08T13:20:47.991Z,15.23
2022-11-08T13:25:52.029Z,15.17
2022-11-08T13:31:02.310Z,15.13
2022-11-08T13:36:09.983Z,15.06
2022-11-08T13:41:18.132Z,14.98
2022-11-08T13:46:19.952Z,14.92
2022-11-08T13:51:23.494Z,14.85
2022-11-08T13:56:44.343Z,14.77
2022-11-08T14:01:46.175Z,14.67
2022-11-08T14:07:06.853Z,14.58
2022-11-08T14:12:08.743Z,14.44
2022-11-08T14:17:34.253Z,14.32
2022-11-08T14:22:36.133Z,14.21
2022-11-08T14:27:40.233Z,14.12
2022-11-08T14:32:42.280Z,14.01
2022-11-08T14:37:44.281Z,13.89
2022-11-08T14:42:46.315Z,13.73
2022-11-08T14:48:03.432Z,13.55
2022-11-08T14:53:17.595Z,13.37
2022-11-08T14:58:20.013Z,13.19
2022-11-08T15:03:29.004Z,13.00
2022-11-08T15:08:52.766Z,12.81
2022-11-08T15:13:59.732Z,12.62
2022-11-08T15:19:37.615Z,12.44
2022-11-08T15:24:40.204Z,12.23
2022-11-08T15:29:52.648Z,12.05
2022-11-08T15:34:56.299Z,11.85
2022-11-08T15:40:16.234Z,11.69
2022-11-08T15:45:17.989Z,11.51
2022-11-08T15:50:22.830Z,11.33
2022-11-08T15:55:50.517Z,11.14
2022-11-08T16:00:52.519Z,10.93
2022-11-08T16:05:54.352Z,10.75
2022-11-08T16:10:59.901Z,10.57
2022-11-08T16:16:05.119Z,10.39
2022-11-08T16:21:09.336Z,10.23
2022-11-08T16:26:17.273Z,10.07
2022-11-08T16:31:19.080Z,9.92
2022-11-08T16:36:24.086Z,9.80
2022-11-08T16:41:26.147Z,9.67
2022-11-08T16:46:28.884Z,9.54
2022-11-08T16:51:31.028Z,9.44
2022-11-08T16:56:32.838Z,9.36
2022-11-08T17:01:34.966Z,9.27
2022-11-08T17:06:36.914Z,9.18
2022-11-08T17:11:39.781Z,9.10
2022-11-08T17:16:42.068Z,9.04
2022-11-08T17:21:45.479Z,9.04
2022-11-08T17:26:47.914Z,9.05
2022-11-08T17:31:50.153Z,9.02
2022-11-08T17:36:53.065Z,9.00
2022-11-08T17:41:54.962Z,8.99
2022-11-08T17:46:56.792Z,9.01
2022-11-08T17:51:58.797Z,8.96
2022-11-08T17:57:00.973Z,8.86
2022-11-08T18:02:03.516Z,8.80
2022-11-08T18:07:05.850Z,8.79
2022-11-08T18:12:07.862Z,8.81
2022-11-08T18:17:09.972Z,8.89
2022-11-08T18:22:11.829Z,8.95
2022-11-08T18:27:13.761Z,8.98
2022-11-08T18:32:15.710Z,9.01
2022-11-08T18:37:17.613Z,9.05
2022-11-08T18:42:19.442Z,9.06
2022-11-08T18:47:21.304Z,9.04
2022-11-08T18:52:23.116Z,9.01
2022-11-08T18:57:24.999Z,8.95
2022-11-08T19:02:26.988Z,8.90
2022-11-08T19:07:29.947Z,8.87
2022-11-08T19:12:31.780Z,8.85
2022-11-08T19:17:35.468Z,8.79
2022-11-08T19:22:37.316Z,8.70
2022-11-08T19:27:39.200Z,8.64
2022-11-08T19:32:41.061Z,8.54
2022-11-08T19:37:43.013Z,8.44
2022-11-08T19:42:44.861Z,8.35
2022-11-08T19:47:48.786Z,8.28
2022-11-08T19:52:50.644Z,8.22
2022-11-08T19:57:52.525Z,8.16
2022-11-08T20:02:54.421Z,8.13
2022-11-08T20:07:56.307Z,8.14
2022-11-08T20:12:58.292Z,8.20
2022-11-08T20:18:00.171Z,8.30
2022-11-08T20:23:01.967Z,8.41
2022-11-08T20:28:04.396Z,8.50
2022-11-08T20:33:06.310Z,8.58
2022-11-08T20:38:08.254Z,8.66
2022-11-08T20:43:10.113Z,8.74
2022-11-08T20:48:14.211Z,8.81
2022-11-08T20:53:16.214Z,8.92
2022-11-08T20:58:18.392Z,9.06
2022-11-08T21:03:21.869Z,9.13
2022-11-08T21:13:47.299Z,9.26
2022-11-08T21:18:49.144Z,9.32
2022-11-08T21:23:51.860Z,9.36
2022-11-08T21:28:54.265Z,9.44
2022-11-08T21:33:56.183Z,9.49
2022-11-08T21:38:58.086Z,9.49
2022-11-08T21:44:00.058Z,9.50
2022-11-08T21:49:02.430Z,9.53
2022-11-08T21:54:05.249Z,9.53
2022-11-08T21:59:07.063Z,9.50
2022-11-08T22:04:08.863Z,9.46
2022-11-08T22:09:11.281Z,9.42
2022-11-08T22:14:13.236Z,9.41
2022-11-08T22:19:15.326Z,9.42
2022-11-08T22:24:20.642Z,9.39
2022-11-08T22:29:22.606Z,9.35
2022-11-08T22:34:25.008Z,9.31
2022-11-08T22:39:26.834Z,9.29
2022-11-08T22:44:28.774Z,9.32
2022-11-08T22:49:30.763Z,9.34
2022-11-08T22:54:32.683Z,9.33
2022-11-08T22:59:34.543Z,9.30
2022-11-08T23:04:36.426Z,9.25
2022-11-08T23:09:38.295Z,9.21
2022-11-08T23:14:59.047Z,9.18
2022-11-08T23:20:19.617Z,9.16
2022-11-08T23:25:21.610Z,9.17
2022-11-08T23:30:42.076Z,9.16
2022-11-08T23:36:03.948Z,9.15
2022-11-08T23:41:24.316Z,9.15
2022-11-08T23:46:26.164Z,9.15
2022-11-08T23:51:28.098Z,9.13
2022-11-08T23:56:30.000Z,9.13
